sensor_id;sensor_type;location;lat;lon;timestamp;P1;durP1;ratioP1;P2;durP2;ratioP2
15112;SDS011;7657;50.140;7.076;2024-02-26T00:02:16;2.60;;;0.60;;
15112;SDS011;7657;50.140;7.076;2024-02-26T00:04:43;1.00;;;0.60;;
15112;SDS011;7657;50.140;7.076;2024-02-26T00:07:09;0.70;;;0.50;;
15112;SDS011;7657;50.140;7.076;2024-02-26T00:09:36;0.93;;;0.70;;
15112;SDS011;7657;50.140;7.076;2024-02-26T00:12:03;0.50;;;0.50;;
15112;SDS011;7657;50.140;7.076;2024-02-26T00:14:30;0.87;;;0.60;;
15112;SDS011;7657;50.140;7.076;2024-02-26T00:16:57;0.93;;;0.50;;
15112;SDS011;7657;50.140;7.076;2024-02-26T00:19:26;0.93;;;0.60;;
15112;SDS011;7657;50.140;7.076;2024-02-26T00:21:52;0.50;;;0.50;;
15112;SDS011;7657;50.140;7.076;2024-02-26T00:24:20;1.37;;;0.43;;
15112;SDS011;7657;50.140;7.076;2024-02-26T00:26:47;0.83;;;0.60;;
15112;SDS011;7657;50.140;7.076;2024-02-26T00:29:18;2.10;;;0.80;;
15112;SDS011;7657;50.140;7.076;2024-02-26T00:31:45;0.80;;;0.67;;
15112;SDS011;7657;50.140;7.076;2024-02-26T00:34:12;1.40;;;0.70;;
15112;SDS011;7657;50.140;7.076;2024-02-26T00:36:40;0.70;;;0.40;;
15112;SDS011;7657;50.140;7.076;2024-02-26T00:39:07;0.93;;;0.60;;
15112;SDS011;7657;50.140;7.076;2024-02-26T00:41:37;0.70;;;0.57;;
15112;SDS011;7657;50.140;7.076;2024-02-26T00:44:05;1.80;;;0.73;;
15112;SDS011;7657;50.140;7.076;2024-02-26T00:46:32;0.77;;;0.70;;
15112;SDS011;7657;50.140;7.076;2024-02-26T00:48:59;0.73;;;0.47;;
15112;SDS011;7657;50.140;7.076;2024-02-26T00:51:26;0.70;;;0.70;;
15112;SDS011;7657;50.140;7.076;2024-02-26T00:53:55;2.80;;;0.60;;
15112;SDS011;7657;50.140;7.076;2024-02-26T00:56:22;0.40;;;0.40;;
15112;SDS011;7657;50.140;7.076;2024-02-26T00:58:49;0.60;;;0.60;;
15112;SDS011;7657;50.140;7.076;2024-02-26T01:01:16;0.90;;;0.63;;
15112;SDS011;7657;50.140;7.076;2024-02-26T01:03:43;0.80;;;0.73;;
15112;SDS011;7657;50.140;7.076;2024-02-26T01:06:10;2.07;;;0.87;;
15112;SDS011;7657;50.140;7.076;2024-02-26T01:08:37;0.70;;;0.60;;
15112;SDS011;7657;50.140;7.076;2024-02-26T01:11:05;1.57;;;1.13;;
15112;SDS011;7657;50.140;7.076;2024-02-26T01:13:33;0.90;;;0.50;;
15112;SDS011;7657;50.140;7.076;2024-02-26T01:16:00;0.73;;;0.40;;
15112;SDS011;7657;50.140;7.076;2024-02-26T01:18:27;0.70;;;0.70;;
15112;SDS011;7657;50.140;7.076;2024-02-26T01:20:54;0.70;;;0.67;;
15112;SDS011;7657;50.140;7.076;2024-02-26T01:23:21;2.07;;;0.70;;
15112;SDS011;7657;50.140;7.076;2024-02-26T01:25:47;1.63;;;0.70;;
15112;SDS011;7657;50.140;7.076;2024-02-26T01:28:16;1.17;;;0.70;;
15112;SDS011;7657;50.140;7.076;2024-02-26T01:30:43;0.60;;;0.60;;
15112;SDS011;7657;50.140;7.076;2024-02-26T01:33:10;0.73;;;0.67;;
15112;SDS011;7657;50.140;7.076;2024-02-26T01:35:37;1.50;;;0.70;;
15112;SDS011;7657;50.140;7.076;2024-02-26T01:38:04;2.00;;;0.70;;
15112;SDS011;7657;50.140;7.076;2024-02-26T01:40:31;1.00;;;0.70;;
15112;SDS011;7657;50.140;7.076;2024-02-26T01:42:58;0.57;;;0.57;;
15112;SDS011;7657;50.140;7.076;2024-02-26T01:45:27;0.80;;;0.80;;
15112;SDS011;7657;50.140;7.076;2024-02-26T01:47:54;0.60;;;0.60;;
15112;SDS011;7657;50.140;7.076;2024-02-26T01:50:22;0.80;;;0.57;;
15112;SDS011;7657;50.140;7.076;2024-02-26T01:52:50;2.23;;;0.70;;
15112;SDS011;7657;50.140;7.076;2024-02-26T01:55:18;0.80;;;0.70;;
15112;SDS011;7657;50.140;7.076;2024-02-26T01:57:47;0.93;;;0.80;;
15112;SDS011;7657;50.140;7.076;2024-02-26T02:00:17;0.80;;;0.80;;
15112;SDS011;7657;50.140;7.076;2024-02-26T02:02:47;1.07;;;0.60;;
15112;SDS011;7657;50.140;7.076;2024-02-26T02:05:15;2.00;;;0.70;;
15112;SDS011;7657;50.140;7.076;2024-02-26T02:07:43;1.67;;;0.70;;
15112;SDS011;7657;50.140;7.076;2024-02-26T02:10:10;0.73;;;0.57;;
15112;SDS011;7657;50.140;7.076;2024-02-26T02:12:37;0.80;;;0.70;;
15112;SDS011;7657;50.140;7.076;2024-02-26T02:15:05;0.73;;;0.57;;
15112;SDS011;7657;50.140;7.076;2024-02-26T02:17:33;1.73;;;0.70;;
15112;SDS011;7657;50.140;7.076;2024-02-26T02:20:02;1.07;;;0.80;;
15112;SDS011;7657;50.140;7.076;2024-02-26T02:22:30;2.00;;;0.70;;
15112;SDS011;7657;50.140;7.076;2024-02-26T02:24:58;1.30;;;0.77;;
15112;SDS011;7657;50.140;7.076;2024-02-26T02:27:26;0.60;;;0.60;;
15112;SDS011;7657;50.140;7.076;2024-02-26T02:29:53;2.20;;;0.80;;
15112;SDS011;7657;50.140;7.076;2024-02-26T02:32:20;1.93;;;0.70;;
15112;SDS011;7657;50.140;7.076;2024-02-26T02:34:49;0.97;;;0.87;;
15112;SDS011;7657;50.140;7.076;2024-02-26T02:37:16;3.97;;;0.83;;
15112;SDS011;7657;50.140;7.076;2024-02-26T02:39:44;1.30;;;0.77;;
15112;SDS011;7657;50.140;7.076;2024-02-26T02:42:11;1.43;;;0.93;;
15112;SDS011;7657;50.140;7.076;2024-02-26T02:44:39;0.70;;;0.70;;
15112;SDS011;7657;50.140;7.076;2024-02-26T02:47:05;1.20;;;0.70;;
15112;SDS011;7657;50.140;7.076;2024-02-26T02:49:32;1.20;;;1.10;;
15112;SDS011;7657;50.140;7.076;2024-02-26T02:51:59;0.90;;;0.90;;
15112;SDS011;7657;50.140;7.076;2024-02-26T02:54:26;1.73;;;0.97;;
15112;SDS011;7657;50.140;7.076;2024-02-26T02:56:54;0.90;;;0.80;;
15112;SDS011;7657;50.140;7.076;2024-02-26T02:59:21;1.67;;;0.83;;
15112;SDS011;7657;50.140;7.076;2024-02-26T03:01:48;1.23;;;0.80;;
15112;SDS011;7657;50.140;7.076;2024-02-26T03:04:15;1.80;;;1.00;;
15112;SDS011;7657;50.140;7.076;2024-02-26T03:06:42;2.60;;;0.80;;
15112;SDS011;7657;50.140;7.076;2024-02-26T03:09:09;1.00;;;0.70;;
15112;SDS011;7657;50.140;7.076;2024-02-26T03:11:36;0.93;;;0.77;;
15112;SDS011;7657;50.140;7.076;2024-02-26T03:14:05;1.17;;;0.80;;
15112;SDS011;7657;50.140;7.076;2024-02-26T03:16:32;0.63;;;0.63;;
15112;SDS011;7657;50.140;7.076;2024-02-26T03:18:59;0.30;;;0.23;;
15112;SDS011;7657;50.140;7.076;2024-02-26T03:21:26;0.60;;;0.60;;
15112;SDS011;7657;50.140;7.076;2024-02-26T03:23:53;0.37;;;0.37;;
15112;SDS011;7657;50.140;7.076;2024-02-26T03:26:20;0.50;;;0.50;;
15112;SDS011;7657;50.140;7.076;2024-02-26T03:28:47;0.73;;;0.63;;
15112;SDS011;7657;50.140;7.076;2024-02-26T03:31:16;0.90;;;0.60;;
15112;SDS011;7657;50.140;7.076;2024-02-26T03:33:42;1.00;;;1.00;;
15112;SDS011;7657;50.140;7.076;2024-02-26T03:36:09;0.93;;;0.67;;
15112;SDS011;7657;50.140;7.076;2024-02-26T03:38:36;0.73;;;0.50;;
15112;SDS011;7657;50.140;7.076;2024-02-26T03:41:04;0.70;;;0.60;;
15112;SDS011;7657;50.140;7.076;2024-02-26T03:43:30;0.60;;;0.60;;
15112;SDS011;7657;50.140;7.076;2024-02-26T03:45:58;0.60;;;0.60;;
15112;SDS011;7657;50.140;7.076;2024-02-26T03:48:26;0.63;;;0.50;;
15112;SDS011;7657;50.140;7.076;2024-02-26T03:50:53;0.97;;;0.80;;
15112;SDS011;7657;50.140;7.076;2024-02-26T03:53:20;0.63;;;0.60;;
15112;SDS011;7657;50.140;7.076;2024-02-26T03:55:47;1.17;;;0.50;;
15112;SDS011;7657;50.140;7.076;2024-02-26T03:58:14;0.47;;;0.47;;
15112;SDS011;7657;50.140;7.076;2024-02-26T04:00:42;0.40;;;0.40;;
15112;SDS011;7657;50.140;7.076;2024-02-26T04:03:09;1.00;;;0.70;;
15112;SDS011;7657;50.140;7.076;2024-02-26T04:05:37;0.70;;;0.50;;
15112;SDS011;7657;50.140;7.076;2024-02-26T04:08:04;0.50;;;0.50;;
15112;SDS011;7657;50.140;7.076;2024-02-26T04:10:32;0.77;;;0.50;;
15112;SDS011;7657;50.140;7.076;2024-02-26T04:13:03;2.97;;;0.83;;
15112;SDS011;7657;50.140;7.076;2024-02-26T04:15:30;0.60;;;0.60;;
15112;SDS011;7657;50.140;7.076;2024-02-26T04:17:57;0.60;;;0.60;;
15112;SDS011;7657;50.140;7.076;2024-02-26T04:20:24;1.00;;;0.60;;
15112;SDS011;7657;50.140;7.076;2024-02-26T04:22:52;0.90;;;0.77;;
15112;SDS011;7657;50.140;7.076;2024-02-26T04:25:19;0.60;;;0.50;;
15112;SDS011;7657;50.140;7.076;2024-02-26T04:27:46;0.73;;;0.60;;
15112;SDS011;7657;50.140;7.076;2024-02-26T04:30:13;0.53;;;0.53;;
15112;SDS011;7657;50.140;7.076;2024-02-26T04:32:40;0.90;;;0.90;;
15112;SDS011;7657;50.140;7.076;2024-02-26T04:35:07;0.50;;;0.50;;
15112;SDS011;7657;50.140;7.076;2024-02-26T04:37:34;0.93;;;0.60;;
15112;SDS011;7657;50.140;7.076;2024-02-26T04:40:02;1.33;;;0.70;;
15112;SDS011;7657;50.140;7.076;2024-02-26T04:42:30;1.17;;;0.87;;
15112;SDS011;7657;50.140;7.076;2024-02-26T04:44:57;2.97;;;1.00;;
15112;SDS011;7657;50.140;7.076;2024-02-26T04:47:24;0.60;;;0.60;;
15112;SDS011;7657;50.140;7.076;2024-02-26T04:49:51;0.80;;;0.70;;
15112;SDS011;7657;50.140;7.076;2024-02-26T04:52:18;0.87;;;0.70;;
15112;SDS011;7657;50.140;7.076;2024-02-26T04:54:44;0.47;;;0.47;;
15112;SDS011;7657;50.140;7.076;2024-02-26T04:57:12;1.00;;;1.00;;
15112;SDS011;7657;50.140;7.076;2024-02-26T04:59:39;1.43;;;0.63;;
15112;SDS011;7657;50.140;7.076;2024-02-26T05:02:07;0.90;;;0.90;;
15112;SDS011;7657;50.140;7.076;2024-02-26T05:04:34;1.20;;;0.90;;
15112;SDS011;7657;50.140;7.076;2024-02-26T05:07:01;0.70;;;0.70;;
15112;SDS011;7657;50.140;7.076;2024-02-26T05:09:28;0.67;;;0.60;;
15112;SDS011;7657;50.140;7.076;2024-02-26T05:11:55;1.90;;;0.80;;
15112;SDS011;7657;50.140;7.076;2024-02-26T05:14:23;1.20;;;0.70;;
15112;SDS011;7657;50.140;7.076;2024-02-26T05:16:50;0.63;;;0.63;;
15112;SDS011;7657;50.140;7.076;2024-02-26T05:19:17;1.80;;;0.87;;
15112;SDS011;7657;50.140;7.076;2024-02-26T05:21:44;1.10;;;1.00;;
15112;SDS011;7657;50.140;7.076;2024-02-26T05:24:12;0.67;;;0.63;;
15112;SDS011;7657;50.140;7.076;2024-02-26T05:26:40;0.70;;;0.70;;
15112;SDS011;7657;50.140;7.076;2024-02-26T05:29:07;0.93;;;0.80;;
15112;SDS011;7657;50.140;7.076;2024-02-26T05:31:35;1.17;;;0.87;;
15112;SDS011;7657;50.140;7.076;2024-02-26T05:34:02;2.13;;;1.00;;
15112;SDS011;7657;50.140;7.076;2024-02-26T05:36:29;1.40;;;1.00;;
15112;SDS011;7657;50.140;7.076;2024-02-26T05:38:58;0.80;;;0.70;;
15112;SDS011;7657;50.140;7.076;2024-02-26T05:41:25;0.97;;;0.80;;
15112;SDS011;7657;50.140;7.076;2024-02-26T05:43:52;0.70;;;0.70;;
15112;SDS011;7657;50.140;7.076;2024-02-26T05:46:19;1.27;;;0.90;;
15112;SDS011;7657;50.140;7.076;2024-02-26T05:48:49;0.70;;;0.70;;
15112;SDS011;7657;50.140;7.076;2024-02-26T05:51:17;1.80;;;0.80;;
15112;SDS011;7657;50.140;7.076;2024-02-26T05:53:44;0.73;;;0.73;;
15112;SDS011;7657;50.140;7.076;2024-02-26T05:56:11;1.07;;;0.70;;
15112;SDS011;7657;50.140;7.076;2024-02-26T05:58:38;1.63;;;0.60;;
15112;SDS011;7657;50.140;7.076;2024-02-26T06:01:05;0.80;;;0.80;;
15112;SDS011;7657;50.140;7.076;2024-02-26T06:03:32;1.23;;;0.80;;
15112;SDS011;7657;50.140;7.076;2024-02-26T06:06:00;0.77;;;0.77;;
15112;SDS011;7657;50.140;7.076;2024-02-26T06:08:27;1.20;;;0.90;;
15112;SDS011;7657;50.140;7.076;2024-02-26T06:10:54;0.80;;;0.80;;
15112;SDS011;7657;50.140;7.076;2024-02-26T06:13:21;0.80;;;0.80;;
15112;SDS011;7657;50.140;7.076;2024-02-26T06:15:48;0.80;;;0.80;;
15112;SDS011;7657;50.140;7.076;2024-02-26T06:18:15;1.10;;;1.00;;
15112;SDS011;7657;50.140;7.076;2024-02-26T06:20:42;0.93;;;0.90;;
15112;SDS011;7657;50.140;7.076;2024-02-26T06:23:11;0.80;;;0.80;;
15112;SDS011;7657;50.140;7.076;2024-02-26T06:25:38;0.80;;;0.77;;
15112;SDS011;7657;50.140;7.076;2024-02-26T06:28:06;0.77;;;0.60;;
15112;SDS011;7657;50.140;7.076;2024-02-26T06:30:33;0.77;;;0.77;;
15112;SDS011;7657;50.140;7.076;2024-02-26T06:33:01;0.70;;;0.67;;
15112;SDS011;7657;50.140;7.076;2024-02-26T06:35:28;0.50;;;0.50;;
15112;SDS011;7657;50.140;7.076;2024-02-26T06:37:55;1.47;;;1.03;;
15112;SDS011;7657;50.140;7.076;2024-02-26T06:40:23;3.43;;;2.70;;
15112;SDS011;7657;50.140;7.076;2024-02-26T06:42:50;1.97;;;1.77;;
15112;SDS011;7657;50.140;7.076;2024-02-26T06:45:17;0.70;;;0.60;;
15112;SDS011;7657;50.140;7.076;2024-02-26T06:47:44;1.33;;;0.93;;
15112;SDS011;7657;50.140;7.076;2024-02-26T06:50:11;0.97;;;0.80;;
15112;SDS011;7657;50.140;7.076;2024-02-26T06:52:39;0.80;;;0.80;;
15112;SDS011;7657;50.140;7.076;2024-02-26T06:55:06;0.93;;;0.90;;
15112;SDS011;7657;50.140;7.076;2024-02-26T06:57:35;0.60;;;0.60;;
15112;SDS011;7657;50.140;7.076;2024-02-26T07:00:02;1.33;;;0.80;;
15112;SDS011;7657;50.140;7.076;2024-02-26T07:02:30;2.60;;;0.80;;
15112;SDS011;7657;50.140;7.076;2024-02-26T07:04:57;1.77;;;0.90;;
15112;SDS011;7657;50.140;7.076;2024-02-26T07:07:24;0.80;;;0.80;;
15112;SDS011;7657;50.140;7.076;2024-02-26T07:09:51;1.20;;;0.73;;
15112;SDS011;7657;50.140;7.076;2024-02-26T07:12:18;1.80;;;0.77;;
15112;SDS011;7657;50.140;7.076;2024-02-26T07:14:47;1.10;;;0.90;;
15112;SDS011;7657;50.140;7.076;2024-02-26T07:17:15;1.40;;;0.93;;
15112;SDS011;7657;50.140;7.076;2024-02-26T07:19:42;2.00;;;1.07;;
15112;SDS011;7657;50.140;7.076;2024-02-26T07:22:09;1.20;;;1.10;;
15112;SDS011;7657;50.140;7.076;2024-02-26T07:24:36;1.23;;;1.13;;
15112;SDS011;7657;50.140;7.076;2024-02-26T07:27:03;0.83;;;0.83;;
15112;SDS011;7657;50.140;7.076;2024-02-26T07:29:30;1.87;;;1.40;;
15112;SDS011;7657;50.140;7.076;2024-02-26T07:31:58;0.93;;;0.90;;
15112;SDS011;7657;50.140;7.076;2024-02-26T07:34:25;1.00;;;1.00;;
15112;SDS011;7657;50.140;7.076;2024-02-26T07:36:54;1.23;;;1.13;;
15112;SDS011;7657;50.140;7.076;2024-02-26T07:39:21;4.30;;;3.33;;
15112;SDS011;7657;50.140;7.076;2024-02-26T07:41:48;4.07;;;3.07;;
15112;SDS011;7657;50.140;7.076;2024-02-26T07:44:17;5.47;;;3.70;;
15112;SDS011;7657;50.140;7.076;2024-02-26T07:46:44;1.13;;;1.03;;
15112;SDS011;7657;50.140;7.076;2024-02-26T07:49:12;1.37;;;1.20;;
15112;SDS011;7657;50.140;7.076;2024-02-26T07:51:39;1.67;;;1.57;;
15112;SDS011;7657;50.140;7.076;2024-02-26T07:54:06;1.20;;;1.10;;
15112;SDS011;7657;50.140;7.076;2024-02-26T07:56:33;2.40;;;1.97;;
15112;SDS011;7657;50.140;7.076;2024-02-26T07:59:00;1.97;;;1.53;;
15112;SDS011;7657;50.140;7.076;2024-02-26T08:01:27;4.40;;;3.07;;
15112;SDS011;7657;50.140;7.076;2024-02-26T08:03:54;3.47;;;2.70;;
15112;SDS011;7657;50.140;7.076;2024-02-26T08:06:22;2.10;;;1.90;;
15112;SDS011;7657;50.140;7.076;2024-02-26T08:08:49;2.07;;;1.20;;
15112;SDS011;7657;50.140;7.076;2024-02-26T08:11:16;1.10;;;1.03;;
15112;SDS011;7657;50.140;7.076;2024-02-26T08:13:43;1.63;;;1.30;;
15112;SDS011;7657;50.140;7.076;2024-02-26T08:16:10;1.50;;;1.10;;
15112;SDS011;7657;50.140;7.076;2024-02-26T08:18:37;0.87;;;0.87;;
15112;SDS011;7657;50.140;7.076;2024-02-26T08:21:05;0.80;;;0.80;;
15112;SDS011;7657;50.140;7.076;2024-02-26T08:23:33;2.17;;;1.27;;
15112;SDS011;7657;50.140;7.076;2024-02-26T08:26:00;1.30;;;1.20;;
15112;SDS011;7657;50.140;7.076;2024-02-26T08:28:29;1.20;;;1.10;;
15112;SDS011;7657;50.140;7.076;2024-02-26T08:30:56;1.63;;;1.33;;
15112;SDS011;7657;50.140;7.076;2024-02-26T08:33:23;1.13;;;1.10;;
15112;SDS011;7657;50.140;7.076;2024-02-26T08:35:50;1.30;;;1.20;;
15112;SDS011;7657;50.140;7.076;2024-02-26T08:38:17;9.03;;;6.37;;
15112;SDS011;7657;50.140;7.076;2024-02-26T08:40:45;3.53;;;2.97;;
15112;SDS011;7657;50.140;7.076;2024-02-26T08:43:12;4.17;;;3.37;;
15112;SDS011;7657;50.140;7.076;2024-02-26T08:45:39;6.40;;;5.47;;
15112;SDS011;7657;50.140;7.076;2024-02-26T08:48:06;1.70;;;1.60;;
15112;SDS011;7657;50.140;7.076;2024-02-26T08:50:33;2.33;;;1.40;;
15112;SDS011;7657;50.140;7.076;2024-02-26T08:53:00;1.20;;;1.10;;
15112;SDS011;7657;50.140;7.076;2024-02-26T08:55:29;1.20;;;1.10;;
15112;SDS011;7657;50.140;7.076;2024-02-26T08:57:57;1.57;;;1.47;;
15112;SDS011;7657;50.140;7.076;2024-02-26T09:00:24;1.20;;;1.10;;
15112;SDS011;7657;50.140;7.076;2024-02-26T09:02:51;1.63;;;1.37;;
15112;SDS011;7657;50.140;7.076;2024-02-26T09:05:17;1.10;;;1.00;;
15112;SDS011;7657;50.140;7.076;2024-02-26T09:07:44;2.33;;;2.13;;
15112;SDS011;7657;50.140;7.076;2024-02-26T09:10:12;1.50;;;1.40;;
15112;SDS011;7657;50.140;7.076;2024-02-26T09:12:39;1.77;;;1.40;;
15112;SDS011;7657;50.140;7.076;2024-02-26T09:15:08;2.60;;;1.80;;
15112;SDS011;7657;50.140;7.076;2024-02-26T09:17:35;6.77;;;4.23;;
15112;SDS011;7657;50.140;7.076;2024-02-26T09:20:02;1.70;;;1.60;;
15112;SDS011;7657;50.140;7.076;2024-02-26T09:22:30;4.57;;;3.40;;
15112;SDS011;7657;50.140;7.076;2024-02-26T09:24:59;2.30;;;2.10;;
15112;SDS011;7657;50.140;7.076;2024-02-26T09:27:26;2.40;;;2.20;;
15112;SDS011;7657;50.140;7.076;2024-02-26T09:29:55;3.87;;;3.30;;
15112;SDS011;7657;50.140;7.076;2024-02-26T09:32:23;2.85;;;1.90;;
15112;SDS011;7657;50.140;7.076;2024-02-26T09:34:51;3.22;;;2.70;;
15112;SDS011;7657;50.140;7.076;2024-02-26T09:37:18;2.13;;;1.90;;
15112;SDS011;7657;50.140;7.076;2024-02-26T09:39:44;2.28;;;2.08;;
15112;SDS011;7657;50.140;7.076;2024-02-26T09:42:12;1.67;;;1.57;;
15112;SDS011;7657;50.140;7.076;2024-02-26T09:44:40;1.53;;;1.43;;
15112;SDS011;7657;50.140;7.076;2024-02-26T09:47:07;1.35;;;1.25;;
15112;SDS011;7657;50.140;7.076;2024-02-26T09:49:38;2.90;;;2.23;;
15112;SDS011;7657;50.140;7.076;2024-02-26T09:52:05;1.20;;;1.10;;
15112;SDS011;7657;50.140;7.076;2024-02-26T09:54:34;1.65;;;1.20;;
15112;SDS011;7657;50.140;7.076;2024-02-26T09:57:02;2.20;;;1.40;;
15112;SDS011;7657;50.140;7.076;2024-02-26T09:59:31;0.90;;;0.90;;
15112;SDS011;7657;50.140;7.076;2024-02-26T10:02:03;3.50;;;2.75;;
15112;SDS011;7657;50.140;7.076;2024-02-26T10:04:31;2.67;;;2.42;;
15112;SDS011;7657;50.140;7.076;2024-02-26T10:06:59;1.65;;;1.55;;
15112;SDS011;7657;50.140;7.076;2024-02-26T10:09:28;1.70;;;0.95;;
15112;SDS011;7657;50.140;7.076;2024-02-26T10:11:57;2.17;;;1.92;;
15112;SDS011;7657;50.140;7.076;2024-02-26T10:14:24;2.25;;;1.60;;
15112;SDS011;7657;50.140;7.076;2024-02-26T10:16:51;2.03;;;1.83;;
15112;SDS011;7657;50.140;7.076;2024-02-26T10:19:24;2.60;;;1.48;;
15112;SDS011;7657;50.140;7.076;2024-02-26T10:21:54;2.47;;;1.65;;
15112;SDS011;7657;50.140;7.076;2024-02-26T10:24:24;1.83;;;1.50;;
15112;SDS011;7657;50.140;7.076;2024-02-26T10:26:51;2.47;;;2.03;;
15112;SDS011;7657;50.140;7.076;2024-02-26T10:29:18;1.65;;;1.50;;
15112;SDS011;7657;50.140;7.076;2024-02-26T10:31:46;3.00;;;1.70;;
15112;SDS011;7657;50.140;7.076;2024-02-26T10:34:14;1.23;;;1.05;;
15112;SDS011;7657;50.140;7.076;2024-02-26T10:36:42;1.88;;;1.27;;
15112;SDS011;7657;50.140;7.076;2024-02-26T10:39:09;1.30;;;1.20;;
15112;SDS011;7657;50.140;7.076;2024-02-26T10:41:39;2.40;;;1.20;;
15112;SDS011;7657;50.140;7.076;2024-02-26T10:44:08;1.58;;;1.48;;
15112;SDS011;7657;50.140;7.076;2024-02-26T10:46:37;1.45;;;1.30;;
15112;SDS011;7657;50.140;7.076;2024-02-26T10:49:04;1.45;;;1.35;;
15112;SDS011;7657;50.140;7.076;2024-02-26T10:51:33;2.10;;;1.50;;
15112;SDS011;7657;50.140;7.076;2024-02-26T10:54:03;1.85;;;1.73;;
15112;SDS011;7657;50.140;7.076;2024-02-26T10:56:33;7.63;;;4.75;;
15112;SDS011;7657;50.140;7.076;2024-02-26T10:59:04;15.23;;;9.55;;
15112;SDS011;7657;50.140;7.076;2024-02-26T11:01:33;5.22;;;4.00;;
15112;SDS011;7657;50.140;7.076;2024-02-26T11:04:03;16.10;;;9.88;;
15112;SDS011;7657;50.140;7.076;2024-02-26T11:06:31;24.00;;;14.60;;
15112;SDS011;7657;50.140;7.076;2024-02-26T11:09:00;18.17;;;9.50;;
15112;SDS011;7657;50.140;7.076;2024-02-26T11:11:29;48.50;;;23.20;;
15112;SDS011;7657;50.140;7.076;2024-02-26T11:13:59;7.88;;;4.55;;
15112;SDS011;7657;50.140;7.076;2024-02-26T11:16:30;19.23;;;11.07;;
15112;SDS011;7657;50.140;7.076;2024-02-26T11:19:00;27.92;;;15.10;;
15112;SDS011;7657;50.140;7.076;2024-02-26T11:21:29;6.75;;;3.60;;
15112;SDS011;7657;50.140;7.076;2024-02-26T11:24:03;38.67;;;22.42;;
15112;SDS011;7657;50.140;7.076;2024-02-26T11:26:32;28.98;;;16.27;;
15112;SDS011;7657;50.140;7.076;2024-02-26T11:29:00;20.73;;;11.75;;
15112;SDS011;7657;50.140;7.076;2024-02-26T11:31:28;10.40;;;5.15;;
15112;SDS011;7657;50.140;7.076;2024-02-26T11:33:58;26.45;;;11.13;;
15112;SDS011;7657;50.140;7.076;2024-02-26T11:36:25;9.65;;;5.57;;
15112;SDS011;7657;50.140;7.076;2024-02-26T11:38:52;18.10;;;9.15;;
15112;SDS011;7657;50.140;7.076;2024-02-26T11:41:21;29.83;;;14.93;;
15112;SDS011;7657;50.140;7.076;2024-02-26T11:43:49;7.57;;;4.65;;
15112;SDS011;7657;50.140;7.076;2024-02-26T11:46:26;4.43;;;2.90;;
15112;SDS011;7657;50.140;7.076;2024-02-26T11:48:56;3.40;;;2.22;;
15112;SDS011;7657;50.140;7.076;2024-02-26T11:51:25;7.22;;;3.92;;
15112;SDS011;7657;50.140;7.076;2024-02-26T11:53:53;8.85;;;4.60;;
15112;SDS011;7657;50.140;7.076;2024-02-26T11:56:22;4.22;;;3.30;;
15112;SDS011;7657;50.140;7.076;2024-02-26T11:58:53;1.90;;;1.80;;
15112;SDS011;7657;50.140;7.076;2024-02-26T12:01:38;2.45;;;2.15;;
15112;SDS011;7657;50.140;7.076;2024-02-26T12:04:08;2.33;;;1.38;;
15112;SDS011;7657;50.140;7.076;2024-02-26T12:06:40;3.47;;;2.55;;
15112;SDS011;7657;50.140;7.076;2024-02-26T12:09:35;1.95;;;1.60;;
15112;SDS011;7657;50.140;7.076;2024-02-26T12:12:03;2.20;;;2.03;;
15112;SDS011;7657;50.140;7.076;2024-02-26T12:14:37;7.60;;;5.10;;
15112;SDS011;7657;50.140;7.076;2024-02-26T12:17:04;7.53;;;3.90;;
15112;SDS011;7657;50.140;7.076;2024-02-26T12:19:35;7.32;;;5.50;;
15112;SDS011;7657;50.140;7.076;2024-02-26T12:22:03;3.28;;;2.72;;
15112;SDS011;7657;50.140;7.076;2024-02-26T12:24:33;5.07;;;3.97;;
15112;SDS011;7657;50.140;7.076;2024-02-26T12:27:00;2.10;;;1.90;;
15112;SDS011;7657;50.140;7.076;2024-02-26T12:29:27;5.93;;;4.07;;
15112;SDS011;7657;50.140;7.076;2024-02-26T12:31:53;4.70;;;3.47;;
15112;SDS011;7657;50.140;7.076;2024-02-26T12:34:20;4.40;;;2.10;;
15112;SDS011;7657;50.140;7.076;2024-02-26T12:36:49;2.50;;;2.25;;
15112;SDS011;7657;50.140;7.076;2024-02-26T12:39:16;2.63;;;2.42;;
15112;SDS011;7657;50.140;7.076;2024-02-26T12:41:45;6.28;;;4.47;;
15112;SDS011;7657;50.140;7.076;2024-02-26T12:44:14;3.80;;;3.17;;
15112;SDS011;7657;50.140;7.076;2024-02-26T12:46:41;3.90;;;3.58;;
15112;SDS011;7657;50.140;7.076;2024-02-26T12:49:08;6.05;;;5.13;;
15112;SDS011;7657;50.140;7.076;2024-02-26T12:51:40;5.38;;;4.43;;
15112;SDS011;7657;50.140;7.076;2024-02-26T12:54:08;4.68;;;3.25;;
15112;SDS011;7657;50.140;7.076;2024-02-26T12:56:36;9.20;;;6.95;;
15112;SDS011;7657;50.140;7.076;2024-02-26T12:59:03;6.43;;;4.65;;
15112;SDS011;7657;50.140;7.076;2024-02-26T13:01:30;3.08;;;2.78;;
15112;SDS011;7657;50.140;7.076;2024-02-26T13:03:58;3.25;;;2.58;;
15112;SDS011;7657;50.140;7.076;2024-02-26T13:06:26;3.83;;;2.97;;
15112;SDS011;7657;50.140;7.076;2024-02-26T13:08:56;3.83;;;2.58;;
15112;SDS011;7657;50.140;7.076;2024-02-26T13:11:25;2.00;;;1.80;;
15112;SDS011;7657;50.140;7.076;2024-02-26T13:13:53;2.70;;;2.20;;
15112;SDS011;7657;50.140;7.076;2024-02-26T13:16:23;2.92;;;2.72;;
15112;SDS011;7657;50.140;7.076;2024-02-26T13:18:51;2.42;;;2.10;;
15112;SDS011;7657;50.140;7.076;2024-02-26T13:21:18;1.80;;;1.70;;
15112;SDS011;7657;50.140;7.076;2024-02-26T13:23:48;2.00;;;1.85;;
15112;SDS011;7657;50.140;7.076;2024-02-26T13:26:15;2.55;;;1.88;;
15112;SDS011;7657;50.140;7.076;2024-02-26T13:28:43;2.50;;;1.92;;
15112;SDS011;7657;50.140;7.076;2024-02-26T13:31:10;2.60;;;2.30;;
15112;SDS011;7657;50.140;7.076;2024-02-26T13:33:38;3.13;;;2.80;;
15112;SDS011;7657;50.140;7.076;2024-02-26T13:36:05;3.40;;;2.10;;
15112;SDS011;7657;50.140;7.076;2024-02-26T13:38:32;2.65;;;2.42;;
15112;SDS011;7657;50.140;7.076;2024-02-26T13:40:59;3.00;;;2.47;;
15112;SDS011;7657;50.140;7.076;2024-02-26T13:43:26;2.53;;;2.30;;
15112;SDS011;7657;50.140;7.076;2024-02-26T13:45:54;3.38;;;3.08;;
15112;SDS011;7657;50.140;7.076;2024-02-26T13:48:21;3.22;;;2.92;;
15112;SDS011;7657;50.140;7.076;2024-02-26T13:50:48;3.28;;;2.95;;
15112;SDS011;7657;50.140;7.076;2024-02-26T13:53:15;3.40;;;3.10;;
15112;SDS011;7657;50.140;7.076;2024-02-26T13:55:42;3.10;;;2.88;;
15112;SDS011;7657;50.140;7.076;2024-02-26T13:58:11;3.97;;;3.22;;
15112;SDS011;7657;50.140;7.076;2024-02-26T14:00:39;3.35;;;3.05;;
15112;SDS011;7657;50.140;7.076;2024-02-26T14:03:08;3.05;;;2.55;;
15112;SDS011;7657;50.140;7.076;2024-02-26T14:05:34;7.15;;;6.45;;
15112;SDS011;7657;50.140;7.076;2024-02-26T14:08:01;7.95;;;4.10;;
15112;SDS011;7657;50.140;7.076;2024-02-26T14:10:28;5.20;;;4.70;;
15112;SDS011;7657;50.140;7.076;2024-02-26T14:12:57;6.75;;;6.05;;
15112;SDS011;7657;50.140;7.076;2024-02-26T14:15:24;8.13;;;6.22;;
15112;SDS011;7657;50.140;7.076;2024-02-26T14:17:51;8.77;;;6.35;;
15112;SDS011;7657;50.140;7.076;2024-02-26T14:20:22;8.20;;;5.75;;
15112;SDS011;7657;50.140;7.076;2024-02-26T14:22:50;11.27;;;7.22;;
15112;SDS011;7657;50.140;7.076;2024-02-26T14:25:18;8.05;;;5.93;;
15112;SDS011;7657;50.140;7.076;2024-02-26T14:27:45;6.32;;;4.78;;
15112;SDS011;7657;50.140;7.076;2024-02-26T14:30:13;7.63;;;5.32;;
15112;SDS011;7657;50.140;7.076;2024-02-26T14:32:40;6.15;;;5.20;;
15112;SDS011;7657;50.140;7.076;2024-02-26T14:35:07;7.53;;;5.53;;
15112;SDS011;7657;50.140;7.076;2024-02-26T14:37:36;7.15;;;6.18;;
15112;SDS011;7657;50.140;7.076;2024-02-26T14:40:03;11.23;;;7.88;;
15112;SDS011;7657;50.140;7.076;2024-02-26T14:42:31;9.90;;;6.30;;
15112;SDS011;7657;50.140;7.076;2024-02-26T14:44:58;21.83;;;14.93;;
15112;SDS011;7657;50.140;7.076;2024-02-26T14:47:25;8.98;;;7.57;;
15112;SDS011;7657;50.140;7.076;2024-02-26T14:49:53;7.28;;;6.57;;
15112;SDS011;7657;50.140;7.076;2024-02-26T14:52:20;9.48;;;7.03;;
15112;SDS011;7657;50.140;7.076;2024-02-26T14:54:48;8.13;;;7.10;;
15112;SDS011;7657;50.140;7.076;2024-02-26T14:57:16;7.85;;;6.65;;
15112;SDS011;7657;50.140;7.076;2024-02-26T14:59:43;10.40;;;7.85;;
15112;SDS011;7657;50.140;7.076;2024-02-26T15:02:10;20.05;;;14.00;;
15112;SDS011;7657;50.140;7.076;2024-02-26T15:04:37;10.65;;;8.48;;